ADDS TAF Board (Experimental) INFO Settings
IDs: Format: Expanded Condensed

KBOS - Boston/Logan Intl, MA, US

Issued at 2320 UTC 27 Aug 2016
Updated at 0211 UTC 28 Aug 2016
Time0154Z 28/03Z 28/04Z 28/05Z 28/06Z 28/07Z 28/08Z 28/09Z 28/10Z 28/11Z 28/12Z 28/13Z 28/14Z 28/15Z
Type OBS PRVL PRVL PRVL PRVL PRVL PRVL PRVL PRVL PRVL PRVL PRVL PRVL PRVL
VIS 10 >6 >6 >6 >6 >6 >6 >6 >6 >6 >6 >6 >6 >6
CIG 75 -- -- -- -- -- -- -- -- -- -- -- -- --
Cover BKN FEW SCT SCT SCT SCT SCT SCT SCT SCT FEW FEW FEW FEW
FltCat VFR VFR VFR VFR VFR VFR VFR VFR VFR VFR VFR VFR VFR VFR
WX -- -- -- -- -- -- -- -- -- -- -- -- -- --
WDir 130 110 VRB VRB VRB VRB VRB VRB VRB VRB VRB VRB VRB VRB
WSpd 5 12 3 3 3 3 3 3 3 3 0 0 0 0
WGst -- -- -- -- -- -- -- -- -- -- -- -- -- --
R04/22
XWnd -5 -12 VRB VRB VRB VRB VRB VRB VRB VRB VRB VRB VRB VRB
HWnd -2 0 VRB VRB VRB VRB VRB VRB VRB VRB VRB VRB VRB VRB
R09/27
XWnd -4 -7 VRB VRB VRB VRB VRB VRB VRB VRB VRB VRB VRB VRB
HWnd 3 10 VRB VRB VRB VRB VRB VRB VRB VRB VRB VRB VRB VRB
R14/32
XWnd -0 3 VRB VRB VRB VRB VRB VRB VRB VRB VRB VRB VRB VRB
HWnd 5 12 VRB VRB VRB VRB VRB VRB VRB VRB VRB VRB VRB VRB
R15/33
XWnd 0 5 VRB VRB VRB VRB VRB VRB VRB VRB VRB VRB VRB VRB
HWnd 5 11 VRB VRB VRB VRB VRB VRB VRB VRB VRB VRB VRB VRB

Raw TAF
KBOS 272320Z 2800/2906 11012KT P6SM FEW070
  FM280400 VRB03KT P6SM SCT050
  FM281200 00000KT P6SM FEW250
  FM281600 14006KT P6SM FEW250
  FM290100 18007KT P6SM SCT100


Raw METAR
KBOS 280154Z 13005KT 10SM BKN075 22/16 A3024 RMK AO2 SLP241 T02170161
KBOS 280054Z 13005KT 10SM BKN075 22/16 A3023 RMK AO2 SLP235 T02220161
KBOS 272354Z 13005KT 10SM SCT075 SCT300 22/16 A3021 RMK AO2 SLP228 T02220156 10267 20217 53012

METAR Board
Radar Display
Forecast Discussion

TAF Board Legend

Potential Impact
Threat None Slight Moderate High
Visibility (sm) ≥5.1 5.1>X≥3 3>X≥1 <1
Ceiling (100 ft) ≥30.1 30.1>X≥10 10>X≥5 <5
Wind Speed (kt) <10 10≤X<20 20≤X<30 ≥30
Wind Gust (kt) <15 15≤X<25 25≤X<35 ≥35
Weather No Wx Reported VCTS,-TS,-FZRA,SN TS,FZRA +TS,+FZRA,+SN